Time;durP1;ratioP1;P1;durP2;ratioP2;P2;SDS_P1;SDS_P2;PMS_P1;PMS_P2;Temp;Humidity;BMP_temperature;BMP_pressure;BME280_temperature;BME280_humidity;BME280_pressure;Samples;Min_cycle;Max_cycle;Signal;HPM_P1;HPM_P2
2023/05/20 00:00:09;;;;;;;13.02;7.15;;;;;;;18.33;65.89;98500.09;2084571;28;19969;-48
2023/05/20 00:01:11;;;;;;;9.57;6.63;;;;;;;18.36;65.74;98498.81;2084377;28;20059;-46
2023/05/20 00:02:12;;;;;;;10.82;6.97;;;;;;;18.40;65.71;98506.28;2078764;28;20494;-48
2023/05/20 00:03:13;;;;;;;;;;;;;;;18.33;65.81;98509.97;2077071;28;20106;-47
2023/05/20 00:04:14;;;;;;;11.70;7.22;;;;;;;18.35;65.65;98503.38;2083254;28;20034;-45
2023/05/20 00:05:16;;;;;;;;;;;;;;;18.28;66.02;98506.06;2080563;28;20239;-49
2023/05/20 00:06:16;;;;;;;;;;;;;;;18.23;66.19;98503.16;2083765;28;19981;-47
2023/05/20 00:07:18;;;;;;;9.70;6.50;;;;;;;18.28;65.89;98506.06;2089070;28;20386;-47
2023/05/20 00:08:20;;;;;;;8.65;6.63;;;;;;;18.36;65.71;98505.06;2083796;28;20152;-48
2023/05/20 00:09:21;;;;;;;9.57;6.45;;;;;;;18.38;65.76;98504.81;2079513;28;20083;-47
2023/05/20 00:10:23;;;;;;;8.63;6.50;;;;;;;18.40;65.47;98508.16;2081920;28;20052;-46
2023/05/20 00:11:25;;;;;;;11.82;6.72;;;;;;;18.41;65.61;98507.91;2080519;28;20625;-47
2023/05/20 00:12:26;;;;;;;10.05;6.45;;;;;;;18.41;65.59;98513.28;2080324;28;20775;-48
2023/05/20 00:13:27;;;;;;;9.68;6.47;;;;;;;18.42;65.40;98508.78;2083819;28;20044;-53
2023/05/20 00:14:28;;;;;;;;;;;;;;;18.31;65.62;98505.66;2084846;28;20101;-47
2023/05/20 00:15:29;;;;;;;9.63;6.35;;;;;;;18.35;65.67;98503.38;2081777;28;20013;-50
2023/05/20 00:16:30;;;;;;;;;;;;;;;18.28;65.99;98510.63;2084446;28;20052;-47
2023/05/20 00:17:31;;;;;;;11.07;5.95;;;;;;;18.32;65.83;98509.16;2083129;28;20762;-46
2023/05/20 00:18:33;;;;;;;;;;;;;;;18.27;65.98;98506.25;2081518;28;20138;-52
2023/05/20 00:19:33;;;;;;;10.15;7.15;;;;;;;18.33;66.07;98509.97;2075277;28;19932;-46
2023/05/20 00:20:35;;;;;;;;;;;;;;;18.26;66.12;98509.97;2082006;28;21576;-46
2023/05/20 00:21:35;;;;;;;10.20;6.57;;;;;;;18.32;65.77;98509.16;2082821;28;19924;-48
2023/05/20 00:22:37;;;;;;;;;;;;;;;18.25;66.08;98509.16;2088629;28;20050;-47
2023/05/20 00:23:39;;;;;;;9.57;6.90;;;;;;;18.32;65.53;98503.78;2083880;28;19925;-47
2023/05/20 00:24:41;;;;;;;9.82;6.57;;;;;;;18.34;65.85;98511.66;2086647;28;20515;-46
2023/05/20 00:25:41;;;;;;;9.75;5.97;;;;;;;18.37;65.78;98503.19;2082159;28;20110;-48
2023/05/20 00:26:43;;;;;;;;;;;;;;;18.31;65.80;98508.34;2082191;28;20129;-47
2023/05/20 00:27:43;;;;;;;13.85;6.57;;;;;;;18.33;65.80;98505.47;2086258;28;20328;-46
2023/05/20 00:28:45;;;;;;;;;;;;;;;18.27;65.97;98507.06;2083009;28;20052;-48
2023/05/20 00:29:45;;;;;;;11.25;6.57;;;;;;;18.32;65.94;98509.16;2081947;28;19989;-46
2023/05/20 00:30:47;;;;;;;;;;;;;;;18.26;65.98;98502.75;2085086;28;20111;-46
2023/05/20 00:31:48;;;;;;;11.32;6.72;;;;;;;18.30;65.88;98511.22;2088621;28;19920;-45
2023/05/20 00:32:49;;;;;;;8.98;6.78;;;;;;;18.35;65.66;98508.75;2081133;28;20056;-46
2023/05/20 00:33:50;;;;;;;10.25;6.03;;;;;;;18.36;65.72;98515.78;2084804;28;20052;-48
2023/05/20 00:34:58;;;;;;;;;;;;;;;18.29;65.71;98514.94;2084157;28;20122;-47
2023/05/20 00:35:59;;;;;;;10.43;6.43;;;;;;;18.33;65.76;98520.72;2087211;28;19925;-47
2023/05/20 00:37:00;;;;;;;;;;;;;;;18.25;65.75;98517.22;2078681;28;20052;-48
2023/05/20 00:38:01;;;;;;;11.13;6.72;;;;;;;18.28;65.84;98519.50;2080442;28;19924;-47
2023/05/20 00:39:04;;;;;;;;;;;;;;;18.24;65.93;98520.09;2082458;28;20048;-47
2023/05/20 00:40:06;;;;;;;10.43;6.65;;;;;;;18.29;65.76;98518.44;2081915;28;19936;-47
2023/05/20 00:41:07;;;;;;;9.00;5.90;;;;;;;18.34;65.71;98520.53;2085252;28;20052;-46
2023/05/20 00:42:08;;;;;;;13.38;6.85;;;;;;;18.36;65.61;98521.16;2081389;28;20053;-49
2023/05/20 00:43:09;;;;;;;;;;;;;;;18.28;65.93;98515.97;2084391;28;20056;-46
2023/05/20 00:44:10;;;;;;;10.77;6.07;;;;;;;18.33;65.47;98520.72;2084441;28;19920;-47
2023/05/20 00:45:12;;;;;;;;;;;;;;;18.24;65.79;98523.59;2085926;28;20561;-48
2023/05/20 00:46:13;;;;;;;9.75;5.68;;;;;;;18.28;65.66;98519.50;2085899;28;19928;-46
2023/05/20 00:47:15;;;;;;;;;;;;;;;18.24;65.78;98512.84;2084374;28;20115;-47
2023/05/20 00:48:15;;;;;;;9.68;5.75;;;;;;;18.30;65.85;98513.91;2087435;28;19928;-45
2023/05/20 00:49:17;;;;;;;;;;;;;;;18.25;65.99;98513.72;2089528;28;20610;-48
2023/05/20 00:50:18;;;;;;;8.05;5.55;;;;;;;18.27;65.96;98506.25;2082958;28;20349;-47
2023/05/20 00:51:19;;;;;;;;;;;;;;;18.21;66.08;98501.72;2087669;28;20053;-46
2023/05/20 00:52:21;;;;;;;9.18;5.13;;;;;;;18.28;65.90;98503.38;2085467;28;19928;-47
2023/05/20 00:53:23;;;;;;;10.85;5.30;;;;;;;18.32;65.57;98509.16;2083701;28;20048;-48
2023/05/20 00:54:25;;;;;;;11.82;6.43;;;;;;;18.35;65.65;98497.19;2086645;28;20643;-47
2023/05/20 00:55:27;;;;;;;7.80;6.07;;;;;;;18.36;65.75;98499.69;2078875;28;20113;-48
2023/05/20 00:56:29;;;;;;;9.10;5.28;;;;;;;18.37;65.20;98495.94;2086895;28;20487;-47
2023/05/20 00:57:30;;;;;;;13.07;6.38;;;;;;;18.39;65.34;98501.94;2087862;28;20060;-48
2023/05/20 00:58:32;;;;;;;;;;;;;;;18.29;65.71;98493.47;2084717;28;20581;-47
2023/05/20 00:59:34;;;;;;;10.68;5.75;;;;;;;18.30;65.72;98500.47;2084344;28;19924;-47
2023/05/20 01:00:35;;;;;;;7.25;5.13;;;;;;;18.36;65.52;98493.47;2081600;28;20075;-48
2023/05/20 01:01:36;;;;;;;8.93;5.55;;;;;;;18.36;65.49;98485.41;2086746;28;20044;-47
2023/05/20 01:02:38;;;;;;;;;;;;;;;18.27;65.70;98490.16;2087946;28;20102;-48
2023/05/20 01:03:39;;;;;;;8.23;5.50;;;;;;;18.32;65.79;98490.38;2088764;28;19970;-50
2023/05/20 01:04:45;;;;;;;7.65;5.68;;;;;;;18.34;65.54;98482.94;2087858;28;20055;-49
2023/05/20 01:05:46;;;;;;;8.77;6.20;;;;;;;18.34;65.66;98485.63;2088436;28;20051;-47
2023/05/20 01:06:48;;;;;;;;;;;;;;;18.26;65.58;98488.50;2089418;28;20048;-46
2023/05/20 01:07:49;;;;;;;9.15;5.55;;;;;;;18.32;65.60;98493.03;2085975;28;19937;-46
2023/05/20 01:08:50;;;;;;;;;;;;;;;18.24;65.72;98487.88;2085589;28;20064;-47
2023/05/20 01:09:54;;;;;;;8.20;5.03;;;;;;;18.28;65.78;98487.28;2085075;28;19960;-48
2023/05/20 01:11:03;;;;;;;8.63;5.60;;;;;;;18.33;65.54;98486.66;2084566;28;20098;-50
2023/05/20 01:12:12;;;;;;;9.32;5.45;;;;;;;18.35;65.49;98479.22;2086778;28;20052;-48
2023/05/20 01:13:20;;;;;;;8.82;5.53;;;;;;;18.36;65.30;98483.56;2086366;28;20079;-47
2023/05/20 01:14:24;;;;;;;9.02;5.30;;;;;;;18.37;65.32;98477.16;2086221;28;20109;-46
2023/05/20 01:15:28;;;;;;;8.88;5.55;;;;;;;18.39;65.35;98487.69;2089254;28;20462;-46
2023/05/20 01:16:32;;;;;;;6.43;5.40;;;;;;;18.38;65.46;98470.75;2091037;28;20048;-46
2023/05/20 01:17:38;;;;;;;9.00;5.75;;;;;;;18.36;65.22;98475.50;2087354;28;20067;-47
2023/05/20 01:18:41;;;;;;;8.80;5.35;;;;;;;18.37;65.25;98477.16;2083454;28;20785;-48
2023/05/20 01:19:44;;;;;;;7.93;4.40;;;;;;;18.38;65.24;98475.28;2086292;28;20048;-47
2023/05/20 01:20:47;;;;;;;9.38;5.45;;;;;;;18.38;65.22;98477.97;2086874;28;20056;-49
2023/05/20 01:21:51;;;;;;;6.20;4.43;;;;;;;18.38;65.37;98483.34;2085419;28;20077;-46
2023/05/20 01:22:55;;;;;;;7.75;5.40;;;;;;;18.38;65.43;98478.78;2086518;28;20133;-48
2023/05/20 01:23:56;;;;;;;7.85;4.88;;;;;;;18.37;65.44;98479.84;2088842;28;20051;-46
2023/05/20 01:24:57;;;;;;;9.07;5.38;;;;;;;18.37;65.37;98477.16;2089686;28;20117;-48
2023/05/20 01:25:59;;;;;;;;;;;;;;;18.27;65.63;98476.72;2092220;28;20110;-47
2023/05/20 01:26:59;;;;;;;6.00;4.55;;;;;;;18.30;65.62;98474.47;2088894;28;19921;-50
2023/05/20 01:28:01;;;;;;;;;;;;;;;18.22;65.61;98474.66;2081081;28;20048;-47
2023/05/20 01:29:03;;;;;;;7.60;4.13;;;;;;;18.27;65.50;98468.66;2080720;28;19920;-47
2023/05/20 01:30:06;;;;;;;6.80;5.22;;;;;;;18.31;65.43;98475.28;2085395;28;20055;-47
2023/05/20 01:31:13;;;;;;;7.32;5.43;;;;;;;18.34;65.24;98468.69;2086040;28;20045;-47
2023/05/20 01:32:19;;;;;;;6.07;4.57;;;;;;;18.35;65.55;98468.47;2087613;28;20139;-46
2023/05/20 01:33:23;;;;;;;6.60;4.28;;;;;;;18.33;65.50;98467.88;2083637;28;20045;-47
2023/05/20 01:34:25;;;;;;;8.50;5.47;;;;;;;18.35;65.66;98464.97;2084122;28;20045;-49
2023/05/20 01:35:27;;;;;;;9.18;5.63;;;;;;;18.35;65.56;98465.78;2087563;28;20044;-48
2023/05/20 01:36:30;;;;;;;6.30;4.55;;;;;;;18.35;65.26;98464.97;2084007;28;20053;-47
2023/05/20 01:37:34;;;;;;;10.00;5.28;;;;;;;18.36;65.34;98470.16;2086375;28;20049;-47
2023/05/20 01:38:39;;;;;;;8.80;5.85;;;;;;;18.37;65.33;98460.22;2086220;28;20049;-47
2023/05/20 01:39:41;;;;;;;8.23;5.00;;;;;;;18.38;65.36;98462.69;2082409;28;20056;-48
2023/05/20 01:40:44;;;;;;;7.70;4.90;;;;;;;18.36;65.05;98456.72;2084483;28;20469;-47
2023/05/20 01:41:46;;;;;;;7.68;5.18;;;;;;;18.36;65.41;98456.72;2087671;28;20048;-48
2023/05/20 01:42:51;;;;;;;7.93;4.68;;;;;;;18.36;65.31;98455.88;2089925;28;21149;-47
2023/05/20 01:43:54;;;;;;;6.32;4.68;;;;;;;18.37;65.11;98458.34;2088649;28;20040;-47
2023/05/20 01:44:55;;;;;;;6.55;4.97;;;;;;;18.36;65.28;98455.88;2089127;28;20052;-49
2023/05/20 01:45:56;;;;;;;5.82;3.60;;;;;;;18.36;65.20;98451.34;2080059;28;20056;-50
2023/05/20 01:46:59;;;;;;;;;;;;;;;18.25;65.60;98451.97;2085355;28;20114;-47
2023/05/20 01:48:01;;;;;;;7.07;4.50;;;;;;;18.30;65.21;98446.78;2083236;28;20007;-49
2023/05/20 01:49:03;;;;;;;5.55;4.05;;;;;;;18.32;65.26;98450.09;2081869;28;20052;-47
2023/05/20 01:50:05;;;;;;;7.80;4.80;;;;;;;18.36;65.35;98458.56;2086892;28;20057;-48
2023/05/20 01:51:06;;;;;;;7.20;5.30;;;;;;;18.35;65.19;98448.84;2081258;28;20044;-49
2023/05/20 01:52:07;;;;;;;5.93;4.55;;;;;;;18.34;65.32;98442.66;2085922;28;20613;-46
2023/05/20 01:53:08;;;;;;;;;;;;;;;18.28;65.31;98438.13;2085237;28;20044;-50
2023/05/20 01:54:10;;;;;;;9.68;4.57;;;;;;;18.28;65.31;98440.81;2086894;28;19966;-48
2023/05/20 01:55:12;;;;;;;6.95;4.55;;;;;;;18.33;65.20;98432.13;2087467;28;20049;-48
2023/05/20 01:56:14;;;;;;;7.25;4.78;;;;;;;18.34;65.37;98423.88;2089733;28;20044;-50
2023/05/20 01:57:15;;;;;;;7.45;4.55;;;;;;;18.35;65.31;98430.88;2087080;28;20549;-49
2023/05/20 01:58:16;;;;;;;5.55;4.70;;;;;;;18.36;65.16;98429.00;2084040;28;20056;-48
2023/05/20 01:59:18;;;;;;;;;;;;;;;18.27;65.11;98423.03;2088333;28;20060;-49
2023/05/20 02:00:18;;;;;;;6.30;4.53;;;;;;;18.29;65.32;98423.66;2087100;28;19974;-49
2023/05/20 02:01:20;;;;;;;;;;;;;;;18.21;65.68;98415.81;2087686;28;20110;-49
2023/05/20 02:02:20;;;;;;;6.53;4.45;;;;;;;18.27;65.52;98414.97;2086171;28;19924;-47
2023/05/20 02:03:22;;;;;;;;;;;;;;;18.20;65.50;98419.53;2082922;28;20045;-49
2023/05/20 02:04:22;;;;;;;7.07;4.40;;;;;;;18.24;65.59;98420.75;2087351;28;19929;-52
2023/05/20 02:05:24;;;;;;;7.07;4.70;;;;;;;18.28;65.27;98420.16;2075388;28;20053;-50
2023/05/20 02:06:25;;;;;;;6.78;4.15;;;;;;;18.32;65.20;98417.88;2084361;28;20078;-49
2023/05/20 02:07:26;;;;;;;;;;;;;;;18.25;65.50;98417.06;2085209;28;20079;-48
2023/05/20 02:08:27;;;;;;;7.68;5.00;;;;;;;18.25;65.48;98420.56;2087433;28;19924;-52
2023/05/20 02:09:30;;;;;;;;;;;;;;;18.20;65.65;98411.47;2088039;28;20461;-48
2023/05/20 02:10:30;;;;;;;6.38;4.07;;;;;;;18.25;65.58;98409.00;2087143;28;20039;-44
2023/05/20 02:11:32;;;;;;;;;;;;;;;18.19;65.74;98412.50;2082603;28;20060;-48
2023/05/20 02:12:32;;;;;;;5.57;4.97;;;;;;;18.24;65.56;98410.84;2089431;28;20001;-48
2023/05/20 02:13:34;;;;;;;;;;;;;;;18.20;65.55;98403.44;2076012;28;20804;-51
2023/05/20 02:14:35;;;;;;;7.18;4.90;;;;;;;18.25;65.48;98406.31;2083767;28;20481;-47
2023/05/20 02:15:36;;;;;;;;;;;;;;;18.20;65.76;98408.81;2078669;28;20139;-48
2023/05/20 02:16:37;;;;;;;7.22;4.97;;;;;;;18.23;65.53;98403.84;2086552;28;20459;-49
2023/05/20 02:17:38;;;;;;;;;;;;;;;18.17;65.60;98403.84;2087812;28;21211;-47
2023/05/20 02:18:39;;;;;;;6.95;4.60;;;;;;;18.23;65.41;98406.53;2078336;28;19944;-48
2023/05/20 02:19:40;;;;;;;;;;;;;;;18.17;65.76;98401.16;2079884;28;20902;-45
2023/05/20 02:20:41;;;;;;;5.50;4.20;;;;;;;18.22;65.70;98401.34;2084183;28;20367;-50
2023/05/20 02:21:44;;;;;;;;;;;;;;;18.16;65.72;98394.94;2086187;28;20055;-51
2023/05/20 02:22:45;;;;;;;5.45;3.83;;;;;;;18.23;65.50;98392.28;2086537;28;20314;-48
2023/05/20 02:23:46;;;;;;;;;;;;;;;18.16;65.89;98392.25;2087136;28;20143;-50
2023/05/20 02:24:48;;;;;;;6.47;4.50;;;;;;;18.22;65.54;98380.72;2087526;28;19981;-50
2023/05/20 02:25:50;;;;;;;7.88;4.80;;;;;;;18.26;65.47;98381.94;2087548;28;20057;-49
2023/05/20 02:26:52;;;;;;;5.18;3.25;;;;;;;18.28;65.03;98382.56;2087724;28;20036;-47
2023/05/20 02:27:54;;;;;;;7.53;5.30;;;;;;;18.28;65.43;98377.19;2086501;28;20045;-47
2023/05/20 02:28:55;;;;;;;6.05;4.30;;;;;;;18.30;65.27;98376.97;2079671;28;20049;-50
2023/05/20 02:29:57;;;;;;;;;;;;;;;18.22;65.37;98374.50;2082811;28;20124;-50
2023/05/20 02:30:57;;;;;;;5.25;4.03;;;;;;;18.23;65.49;98366.25;2085627;28;19928;-50
2023/05/20 02:31:59;;;;;;;;;;;;;;;18.19;65.63;98365.03;2087732;28;20056;-50
2023/05/20 02:33:00;;;;;;;4.28;3.88;;;;;;;18.23;65.46;98357.38;2085468;28;19936;-50
2023/05/20 02:34:01;;;;;;;5.63;4.05;;;;;;;18.28;65.34;98358.41;2080667;28;21422;-49
2023/05/20 02:35:02;;;;;;;4.95;3.70;;;;;;;18.29;65.32;98356.53;2078474;28;20474;-50
2023/05/20 02:36:04;;;;;;;;;;;;;;;18.19;65.32;98348.91;2087290;28;20048;-49
2023/05/20 02:37:04;;;;;;;;;;;;;;;18.14;65.63;98345.22;2079740;28;20470;-50
2023/05/20 02:38:06;;;;;;;5.03;3.37;;;;;;;18.18;65.66;98343.75;2084025;28;20009;-53
2023/05/20 02:39:07;;;;;;;5.18;3.50;;;;;;;18.23;65.39;98350.16;2080541;28;20074;-50
2023/05/20 02:40:10;;;;;;;;;;;;;;;18.17;65.83;98342.94;2082812;28;20510;-48
2023/05/20 02:41:11;;;;;;;6.85;4.18;;;;;;;18.22;65.55;98348.50;2085338;28;19924;-48
2023/05/20 02:42:12;;;;;;;;;;;;;;;18.18;65.39;98351.81;2088512;28;20049;-50
2023/05/20 02:43:13;;;;;;;6.32;4.28;;;;;;;18.23;65.49;98338.59;2086864;28;19920;-49
2023/05/20 02:44:15;;;;;;;;;;;;;;;18.17;65.70;98350.16;2084644;28;20446;-48
2023/05/20 02:45:16;;;;;;;5.45;4.05;;;;;;;18.23;65.38;98341.28;2085562;28;20001;-47
2023/05/20 02:46:18;;;;;;;;;;;;;;;18.15;65.54;98333.44;2087430;28;20053;-48
2023/05/20 02:47:19;;;;;;;5.38;3.97;;;;;;;18.19;65.67;98327.44;2088222;28;20645;-47
2023/05/20 02:48:21;;;;;;;;;;;;;;;18.14;65.52;98329.94;2082537;28;20088;-48
2023/05/20 02:49:21;;;;;;;;;;;;;;;18.11;65.86;98337.53;2088033;28;19920;-49
2023/05/20 02:50:23;;;;;;;5.60;3.67;;;;;;;18.17;65.58;98334.06;2087826;28;19924;-48
2023/05/20 02:51:24;;;;;;;5.28;3.53;;;;;;;18.23;65.44;98341.28;2085808;28;20135;-50
2023/05/20 02:52:26;;;;;;;5.85;3.90;;;;;;;18.25;65.52;98331.16;2087355;28;20044;-50
2023/05/20 02:53:26;;;;;;;6.43;3.90;;;;;;;18.26;65.25;98330.94;2081341;28;20592;-49
2023/05/20 02:54:28;;;;;;;;;;;;;;;18.17;65.35;98328.69;2082508;28;20141;-50
2023/05/20 02:55:33;;;;;;;4.28;3.58;;;;;;;18.22;65.26;98332.41;2083584;28;19971;-51
2023/05/20 02:56:34;;;;;;;5.28;4.00;;;;;;;18.25;65.38;98326.59;2084739;28;20059;-46
2023/05/20 02:57:37;;;;;;;4.95;3.83;;;;;;;18.28;65.24;98328.06;2083587;28;20105;-48
2023/05/20 02:58:38;;;;;;;5.13;4.30;;;;;;;18.27;65.08;98318.34;2086707;28;20082;-47
2023/05/20 02:59:39;;;;;;;6.03;4.20;;;;;;;18.28;65.29;98328.88;2086184;28;20133;-47
2023/05/20 03:00:41;;;;;;;;;;;;;;;18.20;65.25;98323.72;2089457;28;20996;-48
2023/05/20 03:01:42;;;;;;;5.93;3.50;;;;;;;18.21;65.38;98328.03;2085924;28;19920;-50
2023/05/20 03:02:43;;;;;;;;;;;;;;;18.17;65.49;98331.38;2089336;28;20040;-46
2023/05/20 03:03:44;;;;;;;5.00;3.88;;;;;;;18.18;65.50;98324.97;2085706;28;20456;-50
2023/05/20 03:04:46;;;;;;;;;;;;;;;18.12;65.65;98323.94;2082172;28;20060;-47
2023/05/20 03:05:46;;;;;;;7.70;4.35;;;;;;;18.20;65.50;98328.28;2085009;28;19920;-46
2023/05/20 03:06:48;;;;;;;;;;;;;;;18.15;65.52;98325.38;2079122;28;20072;-47
2023/05/20 03:07:48;;;;;;;6.88;4.07;;;;;;;18.19;65.39;98323.91;2083294;28;20036;-48
2023/05/20 03:08:50;;;;;;;;;;;;;;;18.14;65.61;98316.50;2084880;28;20055;-49
2023/05/20 03:09:51;;;;;;;4.93;3.17;;;;;;;18.19;65.49;98315.84;2080542;28;20391;-49
2023/05/20 03:10:53;;;;;;;;;;;;;;;18.12;65.49;98315.06;2084523;28;20060;-47
2023/05/20 03:11:54;;;;;;;6.47;3.88;;;;;;;18.18;65.57;98311.53;2071711;28;19936;-47
2023/05/20 03:12:56;;;;;;;;;;;;;;;18.13;65.71;98316.69;2083489;28;20067;-47
2023/05/20 03:13:56;;;;;;;5.63;4.35;;;;;;;18.17;65.40;98318.78;2085687;28;20029;-46
2023/05/20 03:14:59;;;;;;;5.75;3.78;;;;;;;18.21;65.29;98311.13;2080045;28;20521;-48
2023/05/20 03:16:00;;;;;;;4.70;3.90;;;;;;;18.23;65.45;98307.19;2081852;28;20814;-47
2023/05/20 03:17:02;;;;;;;4.82;3.60;;;;;;;18.25;65.11;98305.13;2080038;28;20044;-47
2023/05/20 03:18:02;;;;;;;5.05;3.63;;;;;;;18.28;65.05;98314.63;2080066;28;21098;-48
2023/05/20 03:19:04;;;;;;;;;;;;;;;18.19;65.31;98307.81;2083078;28;20045;-47
2023/05/20 03:20:06;;;;;;;5.00;3.58;;;;;;;18.21;65.34;98309.25;2085736;28;19928;-46
2023/05/20 03:21:08;;;;;;;4.50;3.63;;;;;;;18.24;65.30;98308.84;2082721;28;20045;-49
2023/05/20 03:22:09;;;;;;;5.60;4.03;;;;;;;18.25;65.26;98305.13;2078935;28;20044;-46
2023/05/20 03:23:10;;;;;;;;;;;;;;;18.18;65.60;98306.16;2087772;28;20054;-47
2023/05/20 03:24:11;;;;;;;4.65;3.60;;;;;;;18.20;65.26;98298.75;2083264;28;19936;-48
2023/05/20 03:25:13;;;;;;;;;;;;;;;18.14;65.73;98307.63;2081290;28;20052;-49
2023/05/20 03:26:15;;;;;;;4.95;3.58;;;;;;;18.19;65.28;98302.44;2081710;28;19993;-50
2023/05/20 03:27:17;;;;;;;5.20;3.88;;;;;;;18.22;65.35;98297.50;2082997;28;20056;-47
2023/05/20 03:28:17;;;;;;;6.20;3.25;;;;;;;18.25;65.02;98298.94;2076680;28;20102;-48
2023/05/20 03:29:20;;;;;;;;;;;;;;;18.17;65.30;98291.94;2086388;28;20048;-50
2023/05/20 03:30:22;;;;;;;5.03;3.95;;;;;;;18.21;65.40;98295.00;2081784;28;19934;-49
2023/05/20 03:31:24;;;;;;;5.32;3.45;;;;;;;18.22;65.10;98291.28;2083809;28;20048;-49
2023/05/20 03:32:25;;;;;;;3.95;3.22;;;;;;;18.25;65.11;98293.56;2086052;28;20064;-50
2023/05/20 03:33:26;;;;;;;;;;;;;;;18.16;65.32;98287.56;2078338;28;20063;-51
2023/05/20 03:34:29;;;;;;;3.83;3.15;;;;;;;18.20;65.35;98293.38;2080693;28;19920;-55
2023/05/20 03:35:30;;;;;;;4.70;3.05;;;;;;;18.23;65.34;98292.94;2078484;28;20509;-47
2023/05/20 03:36:32;;;;;;;4.93;3.10;;;;;;;18.25;65.22;98290.88;2084450;28;20075;-46
2023/05/20 03:37:32;;;;;;;6.63;3.38;;;;;;;18.27;65.12;98280.75;2082663;28;20106;-47
2023/05/20 03:38:34;;;;;;;;;;;;;;;18.17;65.21;98275.00;2083483;28;20102;-47
2023/05/20 03:39:35;;;;;;;4.35;3.33;;;;;;;18.19;65.25;98276.44;2078865;28;20386;-47
2023/05/20 03:40:36;;;;;;;;;;;;;;;18.12;65.55;98269.44;2086218;28;20187;-47
2023/05/20 03:41:38;;;;;;;5.80;3.70;;;;;;;18.19;65.25;98270.22;2085016;28;19996;-49
2023/05/20 03:42:40;;;;;;;4.88;3.50;;;;;;;18.21;65.21;98273.53;2080640;28;20067;-47
2023/05/20 03:43:41;;;;;;;7.07;3.63;;;;;;;18.23;65.38;98266.94;2082701;28;20048;-49
2023/05/20 03:44:42;;;;;;;;;;;;;;;18.15;65.44;98269.84;2083902;28;22201;-50
2023/05/20 03:45:43;;;;;;;4.40;2.90;;;;;;;18.19;65.31;98267.53;2086809;28;19928;-47
2023/05/20 03:46:44;;;;;;;;;;;;;;;18.14;65.61;98268.19;2085125;28;20166;-47
2023/05/20 03:47:45;;;;;;;4.78;2.97;;;;;;;18.16;65.43;98267.97;2076437;28;20351;-48
2023/05/20 03:48:46;;;;;;;;;;;;;;;18.12;65.44;98270.25;2079952;28;20048;-47
2023/05/20 03:49:47;;;;;;;3.40;3.05;;;;;;;18.16;65.48;98262.59;2081577;28;19977;-46
2023/05/20 03:50:49;;;;;;;;;;;;;;;18.11;65.47;98262.41;2080612;28;20048;-48
2023/05/20 03:51:50;;;;;;;3.88;3.42;;;;;;;18.16;65.24;98263.41;2082245;28;20291;-48
2023/05/20 03:52:51;;;;;;;;;;;;;;;18.10;65.46;98264.25;2082920;28;20132;-47
2023/05/20 03:53:52;;;;;;;4.35;3.35;;;;;;;18.15;65.36;98267.16;2079856;28;19924;-48
2023/05/20 03:54:54;;;;;;;;;;;;;;;18.09;65.56;98263.44;2080655;28;20440;-48
2023/05/20 03:55:54;;;;;;;;;;;;;;;18.06;65.60;98266.53;2086538;28;19988;-46
2023/05/20 03:56:59;;;;;;;3.57;3.20;;;;;;;18.11;65.34;98257.88;2081210;28;19925;-47
2023/05/20 03:58:00;;;;;;;4.47;3.70;;;;;;;18.17;65.16;98259.72;2082484;28;20048;-47
2023/05/20 03:59:02;;;;;;;;;;;;;;;18.10;65.36;98266.94;2081133;28;20484;-46
2023/05/20 04:00:08;;;;;;;4.05;3.38;;;;;;;18.16;65.25;98254.53;2080920;28;20996;-48
2023/05/20 04:01:12;;;;;;;5.75;3.60;;;;;;;18.19;65.30;98262.19;2083887;28;20040;-46
2023/05/20 04:02:12;;;;;;;4.30;3.05;;;;;;;18.22;65.06;98267.97;2083159;28;20054;-48
2023/05/20 04:03:14;;;;;;;;;;;;;;;18.15;65.42;98267.16;2082085;28;20055;-48
2023/05/20 04:04:15;;;;;;;5.45;3.10;;;;;;;18.17;65.31;98275.00;2077276;28;19929;-46
2023/05/20 04:05:16;;;;;;;;;;;;;;;18.11;65.53;98270.44;2079016;28;20094;-48
2023/05/20 04:06:17;;;;;;;3.63;3.00;;;;;;;18.15;65.36;98271.69;2078882;28;19978;-46
2023/05/20 04:07:18;;;;;;;;;;;;;;;18.08;65.41;98275.22;2079042;28;20075;-45
2023/05/20 04:08:20;;;;;;;4.45;2.45;;;;;;;18.14;65.55;98270.06;2083348;28;19974;-51
2023/05/20 04:09:22;;;;;;;3.60;3.20;;;;;;;18.18;65.25;98268.59;2080952;28;20628;-48
2023/05/20 04:10:23;;;;;;;5.18;2.92;;;;;;;18.22;65.28;98267.13;2080682;28;20136;-47
2023/05/20 04:11:25;;;;;;;;;;;;;;;18.15;65.26;98266.31;2079120;28;20055;-47
2023/05/20 04:12:29;;;;;;;4.20;3.13;;;;;;;18.18;65.15;98263.22;2080154;28;19985;-48
2023/05/20 04:13:31;;;;;;;3.67;3.22;;;;;;;18.21;65.21;98260.13;2079700;28;20057;-45
2023/05/20 04:14:33;;;;;;;4.82;3.33;;;;;;;18.22;65.14;98265.28;2083973;28;20728;-48
2023/05/20 04:15:35;;;;;;;4.55;2.60;;;;;;;18.22;65.08;98259.06;2083190;28;20103;-48
2023/05/20 04:16:36;;;;;;;4.82;3.13;;;;;;;18.23;64.95;98258.88;2081911;28;20052;-48
2023/05/20 04:17:39;;;;;;;;;;;;;;;18.16;65.35;98258.06;2086655;28;20053;-46
2023/05/20 04:18:40;;;;;;;4.57;2.97;;;;;;;18.19;65.12;98264.84;2087247;28;19971;-48
2023/05/20 04:19:41;;;;;;;;;;;;;;;18.12;65.40;98264.88;2088628;28;20049;-47
2023/05/20 04:20:42;;;;;;;;;;;;;;;18.06;65.53;98257.69;2085627;28;20813;-48
2023/05/20 04:21:44;;;;;;;4.83;2.83;;;;;;;18.09;65.49;98259.94;2085533;28;20006;-47
2023/05/20 04:22:44;;;;;;;3.88;3.28;;;;;;;18.17;65.17;98261.59;2079164;28;20293;-46
2023/05/20 04:23:46;;;;;;;;;;;;;;;18.11;65.28;98265.09;2085175;28;20152;-46
2023/05/20 04:24:47;;;;;;;5.93;3.30;;;;;;;18.14;65.45;98260.13;2085954;28;19950;-47
2023/05/20 04:25:48;;;;;;;;;;;;;;;18.09;65.45;98258.06;2084158;28;20068;-46
2023/05/20 04:26:49;;;;;;;;;;;;;;;18.04;65.64;98257.88;2084141;28;19925;-47
2023/05/20 04:27:53;;;;;;;3.80;2.63;;;;;;;18.12;65.35;98266.75;2081517;28;20051;-48
2023/05/20 04:28:54;;;;;;;3.58;2.88;;;;;;;18.17;65.31;98269.63;2082103;28;20291;-47
2023/05/20 04:29:57;;;;;;;4.53;2.97;;;;;;;18.19;65.35;98264.84;2083345;28;20095;-48
2023/05/20 04:30:59;;;;;;;5.80;3.63;;;;;;;18.22;65.15;98261.75;2073180;28;22156;-47
2023/05/20 04:32:00;;;;;;;4.20;2.90;;;;;;;18.21;65.05;98263.63;2080063;28;20103;-47
2023/05/20 04:33:02;;;;;;;3.30;2.80;;;;;;;18.21;65.07;98271.66;2074842;28;20151;-46
2023/05/20 04:34:03;;;;;;;4.18;3.00;;;;;;;18.24;64.92;98270.44;2081711;28;20062;-47
2023/05/20 04:35:07;;;;;;;4.35;3.10;;;;;;;18.25;64.78;98269.41;2080032;28;20836;-47
2023/05/20 04:36:15;;;;;;;4.47;3.33;;;;;;;18.23;65.15;98274.16;2083580;28;20048;-49
2023/05/20 04:37:15;;;;;;;4.82;3.00;;;;;;;18.23;64.89;98274.97;2084019;28;20052;-49
2023/05/20 04:38:17;;;;;;;;;;;;;;;18.13;65.40;98279.13;2083112;28;20571;-47
2023/05/20 04:39:19;;;;;;;3.38;2.53;;;;;;;18.17;65.20;98270.47;2083833;28;19924;-48
2023/05/20 04:40:21;;;;;;;3.55;2.50;;;;;;;18.21;65.18;98281.59;2085689;28;20079;-48
2023/05/20 04:41:22;;;;;;;5.70;3.58;;;;;;;18.22;65.16;98281.41;2084754;28;20136;-48
2023/05/20 04:42:24;;;;;;;4.70;2.85;;;;;;;18.25;64.86;98288.22;2084239;28;20392;-48
2023/05/20 04:43:28;;;;;;;3.90;2.58;;;;;;;18.25;65.05;98283.66;2084434;28;20052;-48
2023/05/20 04:44:30;;;;;;;3.45;2.60;;;;;;;18.25;64.89;98275.59;2084754;28;20060;-46
2023/05/20 04:45:32;;;;;;;2.95;2.65;;;;;;;18.24;64.80;98284.66;2083947;28;20053;-47
2023/05/20 04:46:33;;;;;;;2.90;2.53;;;;;;;18.24;64.90;98281.97;2086787;28;20291;-47
2023/05/20 04:47:37;;;;;;;4.35;3.35;;;;;;;18.25;65.07;98282.84;2084706;28;20465;-47
2023/05/20 04:48:38;;;;;;;3.80;2.70;;;;;;;18.25;64.92;98280.16;2076824;28;20049;-49
2023/05/20 04:49:39;;;;;;;3.25;2.65;;;;;;;18.25;64.82;98288.22;2081304;28;20649;-48
2023/05/20 04:50:41;;;;;;;;;;;;;;;18.16;65.34;98284.06;2081733;28;20094;-47
2023/05/20 04:51:42;;;;;;;4.50;3.03;;;;;;;18.18;65.15;98287.38;2078343;28;19932;-48
2023/05/20 04:52:44;;;;;;;3.78;3.00;;;;;;;18.22;65.07;98288.59;2073129;28;20130;-48
2023/05/20 04:53:45;;;;;;;3.38;3.03;;;;;;;18.21;64.92;98285.09;2079641;28;21395;-48
2023/05/20 04:54:47;;;;;;;;;;;;;;;18.12;65.28;98283.66;2085552;28;20060;-47
2023/05/20 04:55:48;;;;;;;;;;;;;;;18.06;65.64;98279.16;2085213;28;19928;-47
2023/05/20 04:56:50;;;;;;;5.47;3.17;;;;;;;18.11;65.38;98286.56;2083638;28;19931;-47
2023/05/20 04:57:51;;;;;;;4.50;3.40;;;;;;;18.15;65.24;98287.81;2082805;28;20052;-48
2023/05/20 04:58:54;;;;;;;;;;;;;;;18.07;65.50;98283.47;2082383;28;20514;-47